Time;durP1;ratioP1;P1;durP2;ratioP2;P2;SDS_P1;SDS_P2;PMS_P1;PMS_P2;Temp;Humidity;BMP_temperature;BMP_pressure;BME280_temperature;BME280_humidity;BME280_pressure;Samples;Min_cycle;Max_cycle;Signal;HPM_P1;HPM_P2
2021/11/20 00:00:40;;;;;;;7.25;6.30;;;;;;;;;;5094935;28;20088;-69
2021/11/20 00:03:06;;;;;;;7.57;5.82;;;;;;;;;;5078864;28;20064;-69
2021/11/20 00:05:33;;;;;;;7.25;6.13;;;;;;;;;;5087379;28;20089;-69
2021/11/20 00:07:58;;;;;;;7.97;6.22;;;;;;;;;;5076185;28;20028;-69
2021/11/20 00:10:27;;;;;;;7.63;6.38;;;;;;;;;;5076666;28;20426;-69
2021/11/20 00:12:52;;;;;;;8.60;6.75;;;;;;;;;;5073736;28;20122;-69
2021/11/20 00:15:20;;;;;;;8.90;6.38;;;;;;;;;;5071584;28;20107;-69
2021/11/20 00:17:45;;;;;;;8.27;6.45;;;;;;;;;;5086991;28;20530;-70
2021/11/20 00:20:13;;;;;;;6.93;5.60;;;;;;;;;;5091543;28;20028;-68
2021/11/20 00:22:39;;;;;;;7.32;6.25;;;;;;;;;;5077683;28;20023;-68
2021/11/20 00:25:20;;;;;;;7.95;6.30;;;;;;;;;;5085321;28;20031;-69
2021/11/20 00:27:45;;;;;;;6.97;6.07;;;;;;;;;;5089843;28;20472;-69
2021/11/20 00:30:17;;;;;;;7.65;5.93;;;;;;;;;;5090748;28;20047;-70
2021/11/20 00:32:53;;;;;;;8.38;6.30;;;;;;;;;;5083906;28;20031;-69
2021/11/20 00:35:20;;;;;;;13.52;6.68;;;;;;;;;;5090308;28;20560;-69
2021/11/20 00:37:45;;;;;;;9.75;6.68;;;;;;;;;;5078783;28;20024;-69
2021/11/20 00:40:14;;;;;;;7.15;6.43;;;;;;;;;;5091433;28;20032;-70
2021/11/20 00:42:40;;;;;;;11.13;6.05;;;;;;;;;;5087897;28;20030;-69
2021/11/20 00:45:05;;;;;;;6.55;5.93;;;;;;;;;;5098579;28;20146;-69
2021/11/20 00:47:31;;;;;;;7.13;6.40;;;;;;;;;;5095956;28;20036;-69
2021/11/20 00:49:57;;;;;;;7.28;6.18;;;;;;;;;;5097631;28;20056;-70
2021/11/20 00:52:23;;;;;;;7.28;6.22;;;;;;;;;;5090658;28;20036;-69
2021/11/20 00:54:48;;;;;;;7.28;6.32;;;;;;;;;;5093061;28;20012;-69
2021/11/20 00:57:13;;;;;;;7.55;6.43;;;;;;;;;;5098064;28;20460;-69
2021/11/20 00:59:39;;;;;;;7.32;6.50;;;;;;;;;;5093873;28;20028;-69
2021/11/20 01:02:05;;;;;;;9.00;6.68;;;;;;;;;;5098350;28;20566;-69
2021/11/20 01:04:31;;;;;;;7.90;6.47;;;;;;;;;;5097195;28;20024;-70
2021/11/20 01:06:57;;;;;;;9.02;6.65;;;;;;;;;;5096252;28;20360;-69
2021/11/20 01:09:27;;;;;;;7.78;6.43;;;;;;;;;;5095275;28;20027;-70
2021/11/20 01:11:55;;;;;;;7.70;6.25;;;;;;;;;;5079483;28;20055;-69
2021/11/20 01:14:21;;;;;;;8.00;6.15;;;;;;;;;;5096915;28;20032;-69
2021/11/20 01:16:48;;;;;;;8.18;6.75;;;;;;;;;;5094472;28;20028;-69
2021/11/20 01:19:14;;;;;;;7.15;6.45;;;;;;;;;;5090198;28;20028;-69
2021/11/20 01:21:39;;;;;;;9.25;7.13;;;;;;;;;;5094951;28;20043;-69
2021/11/20 01:24:06;;;;;;;10.45;7.45;;;;;;;;;;5083709;28;20049;-70
2021/11/20 01:26:31;;;;;;;8.07;6.57;;;;;;;;;;5089288;28;20032;-69
2021/11/20 01:28:58;;;;;;;8.25;6.60;;;;;;;;;;5094662;28;20044;-69
2021/11/20 01:31:24;;;;;;;10.75;6.93;;;;;;;;;;5092289;28;20028;-70
2021/11/20 01:33:50;;;;;;;8.32;6.93;;;;;;;;;;5086829;28;20027;-69
2021/11/20 01:36:17;;;;;;;7.43;6.63;;;;;;;;;;5098033;28;20376;-69
2021/11/20 01:38:43;;;;;;;9.60;7.55;;;;;;;;;;5085597;28;20357;-70
2021/11/20 01:41:08;;;;;;;7.05;6.32;;;;;;;;;;5092264;28;20416;-69
2021/11/20 01:43:34;;;;;;;8.68;6.32;;;;;;;;;;5093748;28;20020;-69
2021/11/20 01:46:01;;;;;;;7.40;6.70;;;;;;;;;;5082331;28;20016;-69
2021/11/20 01:48:45;;;;;;;7.43;6.70;;;;;;;;;;5096987;28;20035;-69
2021/11/20 01:51:15;;;;;;;8.68;6.15;;;;;;;;;;5096421;28;20016;-69
2021/11/20 01:53:48;;;;;;;9.23;7.13;;;;;;;;;;5082017;28;20480;-69
2021/11/20 01:56:40;;;;;;;7.93;6.38;;;;;;;;;;5073096;28;20111;-69
2021/11/20 01:59:08;;;;;;;8.70;6.72;;;;;;;;;;5070406;28;20089;-69
2021/11/20 02:01:36;;;;;;;9.40;6.55;;;;;;;;;;5089054;28;20020;-69
2021/11/20 02:04:11;;;;;;;8.85;6.70;;;;;;;;;;5075569;28;20028;-69
2021/11/20 02:06:39;;;;;;;7.80;6.60;;;;;;;;;;5085223;28;20031;-69
2021/11/20 02:09:07;;;;;;;8.18;6.75;;;;;;;;;;5093435;28;20016;-69
2021/11/20 02:11:32;;;;;;;7.88;6.50;;;;;;;;;;5086791;28;20028;-69
2021/11/20 02:13:58;;;;;;;7.32;6.30;;;;;;;;;;5093948;28;20027;-69
2021/11/20 02:16:26;;;;;;;6.90;6.03;;;;;;;;;;5093713;28;20035;-70
2021/11/20 02:18:55;;;;;;;8.38;6.28;;;;;;;;;;5093698;28;20034;-69
2021/11/20 02:21:34;;;;;;;9.40;7.53;;;;;;;;;;5091120;28;20684;-69
2021/11/20 02:23:59;;;;;;;8.45;6.50;;;;;;;;;;5079843;28;20054;-69
2021/11/20 02:26:24;;;;;;;7.68;6.88;;;;;;;;;;5086765;28;20052;-69
2021/11/20 02:28:50;;;;;;;7.25;6.28;;;;;;;;;;5093741;28;20135;-69
2021/11/20 02:31:16;;;;;;;9.00;6.28;;;;;;;;;;5094057;28;20089;-69
2021/11/20 02:33:42;;;;;;;10.45;6.50;;;;;;;;;;5087980;28;20055;-69
2021/11/20 02:36:09;;;;;;;9.43;6.38;;;;;;;;;;5093183;28;20414;-70
2021/11/20 02:38:37;;;;;;;10.40;7.22;;;;;;;;;;5093585;28;20039;-70
2021/11/20 02:41:03;;;;;;;8.82;6.40;;;;;;;;;;5079054;28;20020;-70
2021/11/20 02:43:32;;;;;;;7.45;6.65;;;;;;;;;;5081796;28;20433;-70
2021/11/20 02:45:57;;;;;;;9.68;6.75;;;;;;;;;;5091516;28;20471;-70
2021/11/20 02:48:23;;;;;;;7.53;6.63;;;;;;;;;;5092418;28;20073;-70
2021/11/20 02:50:49;;;;;;;7.15;6.03;;;;;;;;;;5093296;28;20552;-70
2021/11/20 02:53:27;;;;;;;7.75;6.40;;;;;;;;;;5083204;28;20476;-70
2021/11/20 02:55:53;;;;;;;6.95;6.10;;;;;;;;;;5083874;28;20027;-70
2021/11/20 02:58:20;;;;;;;8.55;6.20;;;;;;;;;;5076792;28;20021;-70
2021/11/20 03:00:47;;;;;;;6.20;5.60;;;;;;;;;;5072040;28;20129;-70
2021/11/20 03:03:12;;;;;;;9.38;6.15;;;;;;;;;;5086946;28;20016;-69
2021/11/20 03:05:38;;;;;;;7.30;5.97;;;;;;;;;;5089218;28;20050;-70
2021/11/20 03:08:03;;;;;;;7.75;5.93;;;;;;;;;;5074974;28;20120;-69
2021/11/20 03:10:30;;;;;;;8.25;6.30;;;;;;;;;;5092636;28;20024;-69
2021/11/20 03:12:55;;;;;;;7.57;6.07;;;;;;;;;;5093232;28;20024;-70
2021/11/20 03:15:20;;;;;;;10.07;6.35;;;;;;;;;;5092727;28;20069;-69
2021/11/20 03:17:46;;;;;;;6.40;5.80;;;;;;;;;;5093067;28;20024;-69
2021/11/20 03:20:12;;;;;;;7.03;5.97;;;;;;;;;;5087256;28;20089;-70
2021/11/20 03:22:45;;;;;;;7.75;6.40;;;;;;;;;;5085242;28;20060;-70
2021/11/20 03:25:10;;;;;;;7.22;5.30;;;;;;;;;;5082137;28;20020;-69
2021/11/20 03:27:35;;;;;;;8.27;5.65;;;;;;;;;;5090223;28;20047;-70
2021/11/20 03:30:02;;;;;;;6.38;5.22;;;;;;;;;;5092430;28;20065;-70
2021/11/20 03:32:28;;;;;;;7.15;6.22;;;;;;;;;;5102894;28;20101;-70
2021/11/20 03:34:53;;;;;;;8.25;6.18;;;;;;;;;;5079789;28;20460;-70
2021/11/20 03:37:22;;;;;;;6.88;5.80;;;;;;;;;;5092499;28;20425;-70
2021/11/20 03:39:48;;;;;;;6.55;5.78;;;;;;;;;;5089684;28;20031;-70
2021/11/20 03:42:13;;;;;;;6.53;5.80;;;;;;;;;;5083705;28;20016;-70
2021/11/20 03:44:39;;;;;;;8.18;5.72;;;;;;;;;;5091318;28;20161;-69
2021/11/20 03:47:04;;;;;;;7.28;6.10;;;;;;;;;;5092359;28;20162;-70
2021/11/20 03:49:29;;;;;;;8.05;5.57;;;;;;;;;;5101521;28;20399;-70
2021/11/20 03:51:55;;;;;;;7.90;6.43;;;;;;;;;;5084749;28;20047;-69
2021/11/20 03:54:20;;;;;;;6.55;5.95;;;;;;;;;;5071793;28;20127;-69
2021/11/20 03:56:46;;;;;;;6.47;5.40;;;;;;;;;;5090130;28;20468;-69
2021/11/20 03:59:11;;;;;;;7.38;6.13;;;;;;;;;;5085675;28;20035;-69
2021/11/20 04:01:36;;;;;;;8.70;6.05;;;;;;;;;;5087238;28;20020;-69
2021/11/20 04:04:02;;;;;;;8.05;5.95;;;;;;;;;;5090990;28;20043;-69
2021/11/20 04:06:28;;;;;;;6.95;6.15;;;;;;;;;;5092182;28;20051;-69
2021/11/20 04:08:53;;;;;;;6.78;6.00;;;;;;;;;;5091847;28;20285;-69
2021/11/20 04:11:24;;;;;;;9.82;6.82;;;;;;;;;;5086890;28;20431;-69
2021/11/20 04:13:50;;;;;;;6.45;5.80;;;;;;;;;;5092364;28;20380;-69
2021/11/20 04:16:16;;;;;;;7.20;6.28;;;;;;;;;;5092322;28;20020;-69
2021/11/20 04:18:44;;;;;;;9.20;6.50;;;;;;;;;;5090911;28;20598;-69
2021/11/20 04:21:10;;;;;;;8.23;6.15;;;;;;;;;;5084184;28;20024;-69
2021/11/20 04:23:36;;;;;;;8.40;6.32;;;;;;;;;;5073219;28;20021;-69
2021/11/20 04:26:04;;;;;;;7.00;5.20;;;;;;;;;;5092200;28;20062;-69
2021/11/20 04:28:29;;;;;;;6.93;5.78;;;;;;;;;;5083244;28;20052;-69
2021/11/20 04:30:54;;;;;;;8.38;5.65;;;;;;;;;;5084524;28;20028;-69
2021/11/20 04:33:20;;;;;;;5.72;5.22;;;;;;;;;;5071999;28;20033;-69
2021/11/20 04:35:45;;;;;;;7.15;5.70;;;;;;;;;;5053720;28;20075;-69
2021/11/20 04:38:10;;;;;;;6.93;6.00;;;;;;;;;;5072399;28;20032;-69
2021/11/20 04:40:36;;;;;;;7.53;6.20;;;;;;;;;;5080784;28;20028;-70
2021/11/20 04:43:01;;;;;;;7.57;6.88;;;;;;;;;;5071806;28;20028;-69
2021/11/20 04:45:28;;;;;;;7.18;6.20;;;;;;;;;;5070341;28;20232;-69
2021/11/20 04:47:54;;;;;;;7.93;6.40;;;;;;;;;;5070624;28;20114;-69
2021/11/20 04:50:20;;;;;;;7.03;5.68;;;;;;;;;;5086016;28;20028;-69
2021/11/20 04:52:46;;;;;;;7.28;5.97;;;;;;;;;;5082302;28;20143;-69
2021/11/20 04:55:11;;;;;;;7.95;6.07;;;;;;;;;;5078657;28;20532;-70
2021/11/20 04:57:37;;;;;;;7.72;6.15;;;;;;;;;;5080672;28;20060;-69
2021/11/20 05:00:05;;;;;;;8.95;6.00;;;;;;;;;;5091060;28;20039;-69
2021/11/20 05:02:31;;;;;;;10.38;7.50;;;;;;;;;;5088215;28;20476;-70
2021/11/20 05:04:56;;;;;;;7.40;6.13;;;;;;;;;;5089832;28;20109;-70
2021/11/20 05:07:21;;;;;;;8.50;5.95;;;;;;;;;;5087021;28;20028;-70
2021/11/20 05:09:47;;;;;;;8.30;6.43;;;;;;;;;;5087853;28;20547;-69
2021/11/20 05:12:12;;;;;;;9.85;6.07;;;;;;;;;;5081633;28;20537;-69
2021/11/20 05:14:38;;;;;;;8.75;7.07;;;;;;;;;;5088726;28;20039;-70
2021/11/20 05:17:04;;;;;;;9.55;7.30;;;;;;;;;;5091794;28;20020;-69
2021/11/20 05:19:29;;;;;;;8.30;6.35;;;;;;;;;;5087566;28;20561;-70
2021/11/20 05:21:55;;;;;;;8.65;6.10;;;;;;;;;;5079317;28;20099;-70
2021/11/20 05:24:20;;;;;;;8.10;6.35;;;;;;;;;;5100560;28;20024;-69
2021/11/20 05:26:46;;;;;;;7.95;6.57;;;;;;;;;;5073634;28;20032;-69
2021/11/20 05:29:59;;;;;;;7.50;6.72;;;;;;;;;;5091478;28;20043;-70
2021/11/20 05:31:59;;;;;;;7.53;6.22;;;;;;;;;;5080018;28;20502;-69
2021/11/20 05:34:25;;;;;;;7.03;5.70;;;;;;;;;;5094801;28;20036;-70
2021/11/20 05:36:50;;;;;;;7.70;5.80;;;;;;;;;;5094196;28;20089;-69
2021/11/20 05:39:15;;;;;;;9.75;6.25;;;;;;;;;;5090641;28;20038;-70
2021/11/20 05:41:41;;;;;;;7.25;5.30;;;;;;;;;;5074417;28;20068;-70
2021/11/20 05:44:07;;;;;;;8.40;6.65;;;;;;;;;;5091143;28;20038;-70
2021/11/20 05:46:32;;;;;;;8.18;6.43;;;;;;;;;;5094890;28;20530;-69
2021/11/20 05:48:57;;;;;;;8.00;6.22;;;;;;;;;;5091689;28;20024;-69
2021/11/20 05:51:23;;;;;;;8.07;6.45;;;;;;;;;;5092501;28;20020;-70
2021/11/20 05:53:48;;;;;;;7.75;5.90;;;;;;;;;;5076536;28;20035;-70
2021/11/20 05:56:14;;;;;;;8.15;6.63;;;;;;;;;;5082940;28;20095;-69
2021/11/20 05:58:39;;;;;;;7.43;6.57;;;;;;;;;;5074646;28;20036;-69
2021/11/20 06:01:07;;;;;;;10.02;6.78;;;;;;;;;;5088657;28;20032;-70
2021/11/20 06:03:32;;;;;;;6.82;6.22;;;;;;;;;;5109915;28;20069;-70
2021/11/20 06:05:58;;;;;;;7.25;6.47;;;;;;;;;;5094498;28;20020;-70
2021/11/20 06:08:23;;;;;;;8.45;6.30;;;;;;;;;;5094469;28;20134;-70
2021/11/20 06:10:50;;;;;;;7.28;6.30;;;;;;;;;;5100333;28;20110;-70
2021/11/20 06:13:16;;;;;;;9.82;7.00;;;;;;;;;;5087501;28;20032;-70
2021/11/20 06:15:42;;;;;;;12.13;7.10;;;;;;;;;;5093489;28;20107;-68
2021/11/20 06:18:08;;;;;;;8.00;7.20;;;;;;;;;;5086699;28;20465;-69
2021/11/20 06:20:34;;;;;;;7.90;6.97;;;;;;;;;;5079289;28;20036;-68
2021/11/20 06:22:59;;;;;;;10.90;7.82;;;;;;;;;;5079761;28;20028;-70
2021/11/20 06:25:24;;;;;;;10.93;7.75;;;;;;;;;;5085243;28;20471;-70
2021/11/20 06:27:51;;;;;;;9.52;8.00;;;;;;;;;;5073654;28;20098;-69
2021/11/20 06:30:19;;;;;;;10.13;7.90;;;;;;;;;;5080807;28;20056;-70
2021/11/20 06:32:45;;;;;;;11.65;8.90;;;;;;;;;;5079913;28;20035;-70
2021/11/20 06:35:12;;;;;;;9.65;8.55;;;;;;;;;;5092809;28;20027;-70
2021/11/20 06:37:41;;;;;;;11.82;8.32;;;;;;;;;;5092989;28;20077;-70
2021/11/20 06:40:10;;;;;;;13.65;8.13;;;;;;;;;;5080572;28;20044;-70
2021/11/20 06:42:36;;;;;;;11.05;9.32;;;;;;;;;;5074571;28;20047;-69
2021/11/20 06:45:02;;;;;;;11.77;9.45;;;;;;;;;;5085636;28;20468;-69
2021/11/20 06:47:28;;;;;;;10.80;9.65;;;;;;;;;;5093770;28;20022;-69
2021/11/20 06:49:53;;;;;;;12.85;9.35;;;;;;;;;;5088204;28;20467;-69
2021/11/20 06:52:18;;;;;;;14.27;9.20;;;;;;;;;;5074830;28;20086;-70
2021/11/20 06:54:44;;;;;;;10.05;8.75;;;;;;;;;;5082853;28;20426;-70
2021/11/20 06:57:13;;;;;;;11.52;8.95;;;;;;;;;;5060893;28;20023;-70
2021/11/20 07:02:33;;;;;;;10.80;9.18;;;;;;;;;;5082573;28;20054;-70
2021/11/20 07:04:59;;;;;;;12.63;9.40;;;;;;;;;;5083220;28;20020;-70
2021/11/20 07:07:27;;;;;;;12.02;9.55;;;;;;;;;;5073334;28;20069;-70
2021/11/20 07:09:52;;;;;;;14.65;9.60;;;;;;;;;;5073069;28;20013;-70
2021/11/20 07:12:17;;;;;;;16.17;10.48;;;;;;;;;;5074730;28;20542;-69
2021/11/20 07:14:42;;;;;;;11.20;9.80;;;;;;;;;;5072696;28;20047;-70
2021/11/20 07:17:08;;;;;;;15.13;10.95;;;;;;;;;;5086525;28;20028;-70
2021/11/20 07:19:34;;;;;;;12.93;10.60;;;;;;;;;;5073839;28;20025;-70
2021/11/20 07:21:59;;;;;;;14.30;10.73;;;;;;;;;;5083080;28;20027;-69
2021/11/20 07:24:24;;;;;;;13.68;11.27;;;;;;;;;;5105391;27;20389;-70
2021/11/20 07:26:50;;;;;;;15.45;11.00;;;;;;;;;;5095067;28;20020;-70
2021/11/20 07:29:16;;;;;;;13.68;10.57;;;;;;;;;;5098156;28;20119;-70
2021/11/20 07:31:43;;;;;;;13.88;11.68;;;;;;;;;;5088292;28;20119;-70
2021/11/20 07:34:09;;;;;;;14.57;11.02;;;;;;;;;;5078276;28;20025;-69
2021/11/20 07:36:36;;;;;;;15.18;12.07;;;;;;;;;;5072921;28;20024;-69
2021/11/20 07:39:03;;;;;;;15.70;11.00;;;;;;;;;;5071430;28;20082;-70
2021/11/20 07:41:28;;;;;;;15.50;11.00;;;;;;;;;;5074965;28;20082;-69
2021/11/20 07:43:55;;;;;;;14.77;10.75;;;;;;;;;;5090564;28;20024;-69
2021/11/20 07:46:20;;;;;;;14.18;11.80;;;;;;;;;;5092988;28;20024;-69
2021/11/20 07:48:46;;;;;;;14.85;11.73;;;;;;;;;;5078851;28;20392;-70
2021/11/20 07:51:12;;;;;;;14.57;11.88;;;;;;;;;;5075509;28;20031;-70
2021/11/20 07:53:38;;;;;;;14.30;11.00;;;;;;;;;;5076152;28;20109;-70
2021/11/20 07:56:04;;;;;;;16.98;12.63;;;;;;;;;;5073123;28;20469;-69
2021/11/20 07:58:29;;;;;;;16.73;11.10;;;;;;;;;;5073819;28;20111;-69
2021/11/20 08:00:55;;;;;;;15.88;12.23;;;;;;;;;;5073031;28;20491;-69
2021/11/20 08:03:20;;;;;;;15.75;12.40;;;;;;;;;;5077221;28;20032;-70
2021/11/20 08:05:47;;;;;;;16.17;12.57;;;;;;;;;;5090715;28;20028;-69
2021/11/20 08:08:12;;;;;;;15.00;12.40;;;;;;;;;;5088785;28;20039;-69
2021/11/20 08:10:38;;;;;;;14.10;12.15;;;;;;;;;;5083960;28;20464;-69
2021/11/20 08:13:03;;;;;;;16.20;11.77;;;;;;;;;;5079682;28;20033;-70
2021/11/20 08:15:28;;;;;;;18.15;12.23;;;;;;;;;;5089418;28;20027;-69
2021/11/20 08:17:54;;;;;;;19.52;12.40;;;;;;;;;;5086005;28;20457;-70
2021/11/20 08:20:21;;;;;;;17.67;11.77;;;;;;;;;;5074238;28;20056;-69
2021/11/20 08:22:46;;;;;;;16.67;12.80;;;;;;;;;;5073558;28;20026;-70
2021/11/20 08:25:15;;;;;;;16.40;12.95;;;;;;;;;;5086170;28;20119;-69
2021/11/20 08:27:40;;;;;;;16.42;13.13;;;;;;;;;;5077130;28;20053;-70
2021/11/20 08:30:07;;;;;;;17.35;13.40;;;;;;;;;;5075608;28;20039;-68
2021/11/20 08:32:32;;;;;;;17.15;13.50;;;;;;;;;;5074647;28;20473;-69
2021/11/20 08:34:58;;;;;;;18.33;14.38;;;;;;;;;;5071983;28;20034;-68
2021/11/20 08:37:24;;;;;;;16.27;12.88;;;;;;;;;;5069945;28;20123;-69
2021/11/20 08:39:51;;;;;;;15.70;12.43;;;;;;;;;;5073669;28;20112;-69
2021/11/20 08:42:16;;;;;;;18.23;13.63;;;;;;;;;;5117628;28;20032;-70
2021/11/20 08:44:42;;;;;;;20.00;13.45;;;;;;;;;;5084306;28;20086;-70
2021/11/20 08:47:08;;;;;;;18.60;13.77;;;;;;;;;;5081571;28;20024;-70
2021/11/20 08:49:33;;;;;;;18.42;13.68;;;;;;;;;;5086548;28;20024;-70
2021/11/20 08:51:58;;;;;;;18.63;13.57;;;;;;;;;;5079829;28;20040;-70
2021/11/20 08:54:24;;;;;;;16.25;13.25;;;;;;;;;;5072446;28;20055;-70
2021/11/20 08:56:52;;;;;;;18.73;13.55;;;;;;;;;;5085514;28;20190;-70
2021/11/20 08:59:22;;;;;;;20.58;14.25;;;;;;;;;;5084235;28;20491;-70
2021/11/20 09:01:56;;;;;;;16.05;13.13;;;;;;;;;;5084430;28;20542;-71
2021/11/20 09:04:28;;;;;;;18.42;14.45;;;;;;;;;;5087734;28;20040;-70
2021/11/20 09:07:02;;;;;;;20.58;14.32;;;;;;;;;;5090187;28;20514;-70
2021/11/20 09:09:28;;;;;;;21.77;14.70;;;;;;;;;;5089775;28;20110;-69
2021/11/20 09:11:55;;;;;;;20.25;14.45;;;;;;;;;;5081456;28;20040;-69
2021/11/20 09:14:28;;;;;;;21.35;14.02;;;;;;;;;;5084642;28;20078;-69
2021/11/20 09:16:58;;;;;;;20.40;14.57;;;;;;;;;;5084086;28;20069;-69
2021/11/20 09:19:24;;;;;;;18.58;13.85;;;;;;;;;;5082362;28;20484;-69
2021/11/20 09:21:49;;;;;;;19.60;14.18;;;;;;;;;;5079603;28;20126;-69
2021/11/20 09:24:15;;;;;;;20.65;13.50;;;;;;;;;;5071665;28;20032;-69
2021/11/20 09:26:41;;;;;;;20.73;14.85;;;;;;;;;;5083701;28;20020;-70
2021/11/20 09:29:08;;;;;;;18.50;14.57;;;;;;;;;;5085814;28;20052;-69
2021/11/20 09:31:36;;;;;;;19.13;14.73;;;;;;;;;;5081042;28;20024;-69
2021/11/20 09:34:01;;;;;;;19.58;14.20;;;;;;;;;;5082208;28;20099;-69
2021/11/20 09:36:27;;;;;;;21.67;14.25;;;;;;;;;;5064731;28;20576;-69
2021/11/20 09:38:53;;;;;;;16.75;13.10;;;;;;;;;;5080522;28;20024;-69
2021/11/20 09:41:19;;;;;;;17.90;14.02;;;;;;;;;;5081118;28;20484;-69
2021/11/20 09:43:50;;;;;;;16.00;12.98;;;;;;;;;;5081243;28;20036;-69
2021/11/20 09:46:15;;;;;;;18.67;13.98;;;;;;;;;;5083525;28;20043;-69
2021/11/20 09:48:43;;;;;;;16.50;13.32;;;;;;;;;;5081738;28;20453;-69
2021/11/20 09:51:08;;;;;;;20.70;14.82;;;;;;;;;;5082318;28;20097;-68
2021/11/20 09:53:33;;;;;;;21.77;14.38;;;;;;;;;;5072197;28;20480;-69
2021/11/20 09:56:01;;;;;;;18.20;13.77;;;;;;;;;;5080604;28;20035;-69
2021/11/20 09:58:35;;;;;;;17.42;12.93;;;;;;;;;;5083750;28;20028;-69
2021/11/20 10:01:24;;;;;;;19.20;14.25;;;;;;;;;;5087126;28;20020;-69
2021/11/20 10:03:49;;;;;;;18.23;13.63;;;;;;;;;;5079744;28;20027;-70
2021/11/20 10:06:17;;;;;;;17.10;12.82;;;;;;;;;;5088113;28;20016;-70
2021/11/20 10:08:44;;;;;;;20.65;13.85;;;;;;;;;;5087796;28;20134;-69
2021/11/20 10:11:09;;;;;;;19.83;14.05;;;;;;;;;;5084959;28;20396;-69
2021/11/20 10:13:46;;;;;;;15.73;12.20;;;;;;;;;;5086993;28;20027;-70
2021/11/20 10:16:21;;;;;;;16.02;13.00;;;;;;;;;;5086104;28;20670;-69
2021/11/20 10:18:51;;;;;;;19.40;12.88;;;;;;;;;;5084557;28;20028;-69
2021/11/20 10:21:25;;;;;;;13.85;11.15;;;;;;;;;;5083877;28;20034;-69
2021/11/20 10:23:59;;;;;;;14.07;10.40;;;;;;;;;;5076665;28;20460;-68
2021/11/20 10:26:44;;;;;;;13.97;10.33;;;;;;;;;;5087462;28;20020;-69
2021/11/20 10:29:21;;;;;;;11.35;9.25;;;;;;;;;;5088326;28;20298;-69
2021/11/20 10:31:49;;;;;;;12.55;9.85;;;;;;;;;;5086919;28;20072;-69
2021/11/20 10:34:21;;;;;;;10.82;8.98;;;;;;;;;;5087216;28;20055;-69
2021/11/20 10:36:52;;;;;;;13.10;9.55;;;;;;;;;;5086734;28;20016;-69
2021/11/20 10:39:24;;;;;;;11.48;9.23;;;;;;;;;;5087407;28;20392;-69
2021/11/20 10:41:53;;;;;;;11.57;9.50;;;;;;;;;;5086486;28;20077;-69
2021/11/20 10:44:18;;;;;;;13.90;9.73;;;;;;;;;;5087825;28;20024;-69
2021/11/20 10:46:58;;;;;;;12.07;9.32;;;;;;;;;;5088235;28;20020;-69
2021/11/20 10:49:36;;;;;;;11.90;9.82;;;;;;;;;;5086547;28;20024;-70
2021/11/20 10:52:27;;;;;;;15.30;11.13;;;;;;;;;;5085587;28;20020;-69
2021/11/20 10:54:53;;;;;;;13.80;10.13;;;;;;;;;;5058393;28;20115;-70
2021/11/20 10:57:42;;;;;;;12.98;10.73;;;;;;;;;;5087315;28;20185;-70
2021/11/20 11:00:26;;;;;;;12.77;9.88;;;;;;;;;;5084667;28;20020;-70
2021/11/20 11:03:10;;;;;;;12.65;9.68;;;;;;;;;;5085538;28;20040;-70
2021/11/20 11:05:41;;;;;;;12.43;10.13;;;;;;;;;;5086763;28;20473;-68
2021/11/20 11:08:19;;;;;;;13.80;9.50;;;;;;;;;;5086429;28;20073;-68
2021/11/20 11:10:51;;;;;;;9.80;8.60;;;;;;;;;;5085227;28;20052;-69
2021/11/20 11:13:38;;;;;;;12.75;9.93;;;;;;;;;;5087932;28;20038;-69
2021/11/20 11:16:24;;;;;;;14.10;10.23;;;;;;;;;;5086557;28;20023;-69
2021/11/20 11:18:57;;;;;;;12.77;10.20;;;;;;;;;;5085798;28;20036;-69
2021/11/20 11:21:40;;;;;;;13.57;9.85;;;;;;;;;;5086942;28;20012;-70
2021/11/20 11:24:08;;;;;;;11.90;9.85;;;;;;;;;;5084102;28;20051;-69
2021/11/20 11:26:36;;;;;;;14.75;9.85;;;;;;;;;;5085914;28;20149;-70
2021/11/20 11:29:06;;;;;;;12.50;9.30;;;;;;;;;;5086624;28;20086;-70
2021/11/20 11:31:34;;;;;;;12.90;9.88;;;;;;;;;;5084953;28;20016;-70
2021/11/20 11:34:01;;;;;;;12.43;9.10;;;;;;;;;;5085771;28;20048;-69
2021/11/20 11:36:34;;;;;;;11.52;9.07;;;;;;;;;;5085192;28;20381;-70
2021/11/20 11:39:19;;;;;;;12.48;10.07;;;;;;;;;;5084534;28;20023;-70
2021/11/20 11:41:58;;;;;;;10.05;8.27;;;;;;;;;;5084352;28;20016;-69
2021/11/20 11:44:38;;;;;;;10.88;8.93;;;;;;;;;;5084462;28;20481;-69
2021/11/20 11:47:17;;;;;;;10.32;8.93;;;;;;;;;;5086154;28;20080;-70
2021/11/20 11:50:01;;;;;;;10.05;8.70;;;;;;;;;;5084676;28;20606;-69
2021/11/20 11:52:39;;;;;;;9.48;7.57;;;;;;;;;;5082048;28;20024;-69
2021/11/20 11:55:10;;;;;;;11.00;8.82;;;;;;;;;;5084450;28;20024;-69
2021/11/20 11:57:54;;;;;;;9.35;7.80;;;;;;;;;;5087423;28;20024;-69
2021/11/20 12:00:32;;;;;;;12.63;9.25;;;;;;;;;;5084320;28;20383;-69
2021/11/20 12:02:58;;;;;;;11.77;9.35;;;;;;;;;;5085140;28;20027;-69
2021/11/20 12:05:32;;;;;;;10.43;8.25;;;;;;;;;;5067296;28;20024;-69
2021/11/20 12:08:18;;;;;;;9.85;8.60;;;;;;;;;;5120114;27;20023;-69
2021/11/20 12:10:57;;;;;;;10.88;8.30;;;;;;;;;;5065160;28;20487;-69
2021/11/20 12:13:29;;;;;;;11.07;8.30;;;;;;;;;;5081077;28;20024;-69
2021/11/20 12:16:03;;;;;;;10.77;8.18;;;;;;;;;;5082368;28;20051;-69
2021/11/20 12:18:39;;;;;;;11.50;7.13;;;;;;;;;;5084989;28;20024;-69
2021/11/20 12:21:16;;;;;;;10.82;7.60;;;;;;;;;;5079668;28;20035;-69
2021/11/20 12:23:53;;;;;;;9.50;7.13;;;;;;;;;;5073442;28;20020;-70
2021/11/20 12:26:25;;;;;;;9.18;7.72;;;;;;;;;;5078352;28;20042;-69
2021/11/20 12:28:50;;;;;;;9.05;6.47;;;;;;;;;;5084116;28;20402;-70
2021/11/20 12:31:16;;;;;;;10.73;7.43;;;;;;;;;;5079870;28;20012;-69
2021/11/20 12:34:00;;;;;;;9.20;7.78;;;;;;;;;;5084592;28;20046;-69
2021/11/20 12:36:28;;;;;;;7.78;6.95;;;;;;;;;;5077107;28;21467;-69
2021/11/20 12:39:06;;;;;;;8.55;6.72;;;;;;;;;;5077712;28;20542;-69
2021/11/20 12:41:41;;;;;;;6.38;5.68;;;;;;;;;;5080057;28;20062;-69
2021/11/20 12:44:10;;;;;;;6.85;5.93;;;;;;;;;;5076472;28;20048;-70
2021/11/20 12:46:44;;;;;;;9.75;6.22;;;;;;;;;;5077529;28;20507;-69
2021/11/20 12:49:12;;;;;;;7.35;6.07;;;;;;;;;;5078179;28;20538;-69
2021/11/20 12:51:59;;;;;;;7.82;6.43;;;;;;;;;;5076562;28;20028;-70
2021/11/20 12:54:42;;;;;;;6.78;5.47;;;;;;;;;;5078423;28;20510;-68
2021/11/20 12:57:11;;;;;;;6.78;6.07;;;;;;;;;;5077496;28;20306;-69
2021/11/20 12:59:40;;;;;;;7.10;5.90;;;;;;;;;;5081766;28;20027;-70
2021/11/20 13:02:14;;;;;;;6.47;5.78;;;;;;;;;;5085337;28;20027;-69
2021/11/20 13:04:39;;;;;;;6.60;5.57;;;;;;;;;;5084348;28;20076;-70
2021/11/20 13:07:08;;;;;;;6.63;5.95;;;;;;;;;;5082979;28;20439;-69
2021/11/20 13:09:46;;;;;;;7.45;5.75;;;;;;;;;;5084912;28;20020;-69
2021/11/20 13:12:50;;;;;;;7.60;6.28;;;;;;;;;;5085697;28;20024;-70
2021/11/20 13:15:29;;;;;;;6.95;5.43;;;;;;;;;;5026694;28;20417;-70
2021/11/20 13:17:59;;;;;;;6.55;5.75;;;;;;;;;;5042412;28;20230;-69
2021/11/20 13:20:36;;;;;;;6.82;5.85;;;;;;;;;;5039100;28;20489;-69
2021/11/20 13:23:13;;;;;;;6.38;5.50;;;;;;;;;;5037296;28;20080;-69
2021/11/20 13:25:53;;;;;;;5.97;5.22;;;;;;;;;;5042109;28;20029;-70
2021/11/20 13:28:18;;;;;;;7.30;5.30;;;;;;;;;;5019036;28;20425;-69
2021/11/20 13:30:45;;;;;;;6.25;5.18;;;;;;;;;;5040512;28;20033;-70
2021/11/20 13:33:11;;;;;;;6.18;5.45;;;;;;;;;;5026138;28;20025;-69
2021/11/20 13:35:38;;;;;;;6.00;5.18;;;;;;;;;;5041812;28;20020;-69
2021/11/20 13:38:05;;;;;;;6.13;5.00;;;;;;;;;;5025852;28;20028;-69
2021/11/20 13:40:35;;;;;;;6.05;5.45;;;;;;;;;;5025352;28;20037;-69
2021/11/20 13:43:00;;;;;;;6.28;4.97;;;;;;;;;;5042913;28;20028;-68
2021/11/20 13:45:26;;;;;;;5.88;4.72;;;;;;;;;;5053522;28;20055;-69
2021/11/20 13:47:52;;;;;;;4.97;4.47;;;;;;;;;;5084526;28;20020;-69
2021/11/20 13:50:18;;;;;;;7.13;5.40;;;;;;;;;;5085545;28;20171;-69
2021/11/20 13:52:44;;;;;;;5.78;5.28;;;;;;;;;;5085245;28;20021;-70
2021/11/20 13:55:12;;;;;;;5.53;5.03;;;;;;;;;;5088626;28;20369;-70
2021/11/20 13:57:40;;;;;;;6.50;5.78;;;;;;;;;;5089395;28;20121;-70
2021/11/20 14:00:11;;;;;;;5.88;5.30;;;;;;;;;;5088495;28;20107;-68
2021/11/20 14:02:50;;;;;;;7.18;5.72;;;;;;;;;;5088401;28;20039;-70
2021/11/20 14:05:17;;;;;;;8.57;6.13;;;;;;;;;;5088860;28;20016;-69
2021/11/20 14:07:43;;;;;;;6.55;5.93;;;;;;;;;;5088278;28;20502;-69
2021/11/20 14:10:12;;;;;;;8.25;6.05;;;;;;;;;;5087987;28;20032;-69
2021/11/20 14:12:49;;;;;;;7.22;6.10;;;;;;;;;;5087919;28;20080;-68
2021/11/20 14:15:15;;;;;;;7.03;6.32;;;;;;;;;;5089407;28;20555;-68
2021/11/20 14:17:40;;;;;;;6.43;5.65;;;;;;;;;;5088089;28;20102;-69
2021/11/20 14:20:06;;;;;;;7.47;6.22;;;;;;;;;;5087593;28;20396;-69
2021/11/20 14:22:36;;;;;;;6.68;6.00;;;;;;;;;;5083871;28;20035;-70
2021/11/20 14:25:01;;;;;;;6.40;5.75;;;;;;;;;;5087966;28;20061;-70
2021/11/20 14:27:27;;;;;;;7.65;6.60;;;;;;;;;;5089255;28;20476;-68
2021/11/20 14:29:54;;;;;;;7.55;6.70;;;;;;;;;;5087449;28;20043;-68
2021/11/20 14:32:20;;;;;;;10.75;6.75;;;;;;;;;;5087462;28;20036;-68
2021/11/20 14:34:46;;;;;;;7.10;6.35;;;;;;;;;;5088888;28;20043;-68
2021/11/20 14:37:31;;;;;;;7.32;6.60;;;;;;;;;;5088789;28;20549;-68
2021/11/20 14:39:57;;;;;;;6.93;6.22;;;;;;;;;;5087384;28;20028;-70
2021/11/20 14:42:28;;;;;;;10.50;6.70;;;;;;;;;;5088100;28;20081;-68
2021/11/20 14:45:05;;;;;;;6.30;5.70;;;;;;;;;;5087635;28;20157;-69